createdAt,value
2018-02-04T00:01:41.446Z,44.20
2018-02-04T00:04:08.950Z,47.80
2018-02-04T00:06:36.487Z,44.95
2018-02-04T00:09:04.764Z,45.42
2018-02-04T00:11:33.034Z,46.72
2018-02-04T00:14:00.558Z,48.38
2018-02-04T00:16:28.070Z,51.03
2018-02-04T00:18:56.358Z,46.55
2018-02-04T00:21:23.859Z,55.88
2018-02-04T00:23:51.373Z,48.60
2018-02-04T00:26:18.889Z,50.20
2018-02-04T00:28:46.416Z,54.05
2018-02-04T00:31:13.938Z,47.83
2018-02-04T00:33:42.216Z,52.00
2018-02-04T00:36:09.751Z,55.45
2018-02-04T00:38:37.357Z,45.72
2018-02-04T00:41:04.891Z,46.95
2018-02-04T00:43:33.152Z,52.33
2018-02-04T00:46:01.447Z,58.15
2018-02-04T00:48:28.972Z,50.05
2018-02-04T00:50:56.498Z,45.85
2018-02-04T00:53:24.020Z,40.40
2018-02-04T00:55:51.544Z,43.65
2018-02-04T00:58:19.081Z,51.03
2018-02-04T01:00:46.600Z,51.20
2018-02-04T01:03:14.123Z,46.78
2018-02-04T01:05:41.613Z,45.92
2018-02-04T01:08:09.142Z,50.20
2018-02-04T01:10:36.665Z,45.17
2018-02-04T01:13:04.183Z,43.45
2018-02-04T01:15:32.473Z,45.85
2018-02-04T01:17:59.992Z,47.92
2018-02-04T01:20:27.503Z,48.05
2018-02-04T01:22:55.028Z,45.38
2018-02-04T01:25:23.307Z,46.03
2018-02-04T01:27:51.601Z,44.13
2018-02-04T01:30:19.141Z,42.62
2018-02-04T01:32:47.410Z,46.60
2018-02-04T01:35:15.722Z,56.15
2018-02-04T01:37:43.221Z,53.40
2018-02-04T01:40:10.737Z,41.78
2018-02-04T01:42:38.285Z,44.42
2018-02-04T01:45:05.816Z,39.60
2018-02-04T01:47:34.120Z,50.72
2018-02-04T01:50:01.648Z,48.22
2018-02-04T01:52:29.188Z,47.55
2018-02-04T01:54:56.691Z,48.22
2018-02-04T01:57:24.218Z,44.00
2018-02-04T01:59:51.765Z,43.30
2018-02-04T02:02:19.281Z,40.60
2018-02-04T02:04:46.806Z,37.33
2018-02-04T02:07:15.074Z,43.33
2018-02-04T02:09:42.621Z,40.33
2018-02-04T02:12:10.121Z,37.58
2018-02-04T02:14:37.665Z,41.55
2018-02-04T02:17:05.962Z,41.50
2018-02-04T02:19:33.479Z,42.03
2018-02-04T02:22:01.004Z,39.28
2018-02-04T02:24:28.525Z,41.83
2018-02-04T02:26:56.043Z,49.85
2018-02-04T02:29:23.541Z,45.33
2018-02-04T02:31:51.081Z,33.90
2018-02-04T02:34:19.357Z,40.78
2018-02-04T02:36:47.664Z,40.22
2018-02-04T02:39:15.180Z,47.20
2018-02-04T02:41:42.693Z,47.60
2018-02-04T02:44:10.208Z,40.78
2018-02-04T02:46:38.519Z,43.22
2018-02-04T02:49:06.035Z,40.47
2018-02-04T02:51:33.541Z,41.10
2018-02-04T02:54:01.058Z,39.25
2018-02-04T02:56:28.568Z,40.97
2018-02-04T02:58:56.085Z,31.15
2018-02-04T03:01:24.363Z,34.88
2018-02-04T03:03:52.646Z,36.83
2018-02-04T03:06:20.146Z,32.55
2018-02-04T03:08:47.668Z,31.67
2018-02-04T03:11:15.170Z,33.00
2018-02-04T03:13:42.686Z,29.50
2018-02-04T03:16:10.195Z,38.55
2018-02-04T03:18:37.723Z,36.95
2018-02-04T03:21:05.230Z,32.90
2018-02-04T03:23:32.768Z,34.38
2018-02-04T03:26:00.326Z,32.42
2018-02-04T03:28:27.868Z,36.97
2018-02-04T03:30:55.371Z,34.55
2018-02-04T03:33:23.667Z,37.10
2018-02-04T03:35:51.170Z,31.85
2018-02-04T03:38:18.703Z,31.92
2018-02-04T03:40:46.204Z,36.67
2018-02-04T03:43:13.717Z,37.95
2018-02-04T03:45:41.225Z,29.00
2018-02-04T03:48:08.742Z,31.37
2018-02-04T03:50:36.295Z,39.92
2018-02-04T03:53:03.797Z,32.03
2018-02-04T03:55:31.340Z,34.08
2018-02-04T03:57:59.026Z,33.60
2018-02-04T04:00:26.555Z,32.97
2018-02-04T04:02:54.078Z,30.37
2018-02-04T04:05:21.621Z,27.85
2018-02-04T04:07:49.893Z,28.23
2018-02-04T04:10:18.186Z,26.08
2018-02-04T04:12:45.694Z,22.60
2018-02-04T04:15:13.243Z,30.70
2018-02-04T04:17:40.763Z,24.23
2018-02-04T04:20:08.302Z,21.95
2018-02-04T04:22:36.579Z,27.58
2018-02-04T04:25:04.879Z,23.73
2018-02-04T04:27:32.394Z,29.00
2018-02-04T04:29:59.917Z,25.02
2018-02-04T04:32:27.438Z,23.33
2018-02-04T04:34:55.711Z,21.35
2018-02-04T04:37:24.027Z,22.75
2018-02-04T04:39:51.543Z,20.48
2018-02-04T04:42:19.839Z,20.00
2018-02-04T04:44:47.366Z,21.85
2018-02-04T04:47:14.875Z,24.27
2018-02-04T04:49:42.389Z,19.35
2018-02-04T04:52:10.704Z,24.02
2018-02-04T04:54:38.229Z,26.77
2018-02-04T04:57:06.517Z,22.62
2018-02-04T04:59:34.026Z,30.80
2018-02-04T05:02:01.534Z,21.20
2018-02-04T05:04:29.065Z,21.50
2018-02-04T05:06:56.591Z,21.80
2018-02-04T05:09:24.094Z,23.60
2018-02-04T05:11:52.389Z,18.85
2018-02-04T05:14:19.902Z,24.87
2018-02-04T05:16:47.433Z,25.30
2018-02-04T05:19:14.972Z,23.92
2018-02-04T05:21:42.476Z,26.67
2018-02-04T05:24:10.010Z,22.52
2018-02-04T05:26:37.519Z,21.45
2018-02-04T05:29:05.828Z,25.58
2018-02-04T05:31:33.330Z,23.50
2018-02-04T05:34:00.884Z,23.95
2018-02-04T05:36:28.394Z,24.42
2018-02-04T05:38:55.936Z,25.80
2018-02-04T05:41:24.225Z,28.10
2018-02-04T05:43:51.734Z,24.87
2018-02-04T05:46:19.254Z,29.20
2018-02-04T05:48:46.762Z,24.70
2018-02-04T05:51:14.303Z,24.25
2018-02-04T05:53:41.821Z,25.52
2018-02-04T05:56:09.349Z,21.42
2018-02-04T05:58:36.849Z,25.05
2018-02-04T06:01:04.393Z,24.08
2018-02-04T06:03:31.921Z,19.08
2018-02-04T06:05:59.465Z,23.38
2018-02-04T06:08:26.973Z,21.02
2018-02-04T06:10:54.492Z,21.50
2018-02-04T06:13:22.017Z,20.27
2018-02-04T06:15:49.542Z,21.67
2018-02-04T06:18:17.049Z,22.55
2018-02-04T06:20:44.558Z,21.50
2018-02-04T06:23:13.009Z,22.10
2018-02-04T06:25:40.517Z,19.42
2018-02-04T06:28:08.057Z,17.50
2018-02-04T06:30:35.566Z,19.83
2018-02-04T06:33:03.089Z,20.55
2018-02-04T06:35:30.606Z,21.50
2018-02-04T06:37:58.119Z,20.02
2018-02-04T06:40:25.644Z,20.65
2018-02-04T06:42:53.175Z,17.95
2018-02-04T06:45:20.674Z,16.85
2018-02-04T06:47:48.193Z,27.65
2018-02-04T06:50:15.723Z,21.12
2018-02-04T06:52:43.227Z,21.15
2018-02-04T06:55:11.514Z,18.05
2018-02-04T06:57:39.058Z,21.52
2018-02-04T07:00:07.353Z,17.87
2018-02-04T07:02:34.862Z,19.25
2018-02-04T07:05:02.397Z,20.77
2018-02-04T07:07:29.905Z,21.37
2018-02-04T07:09:58.175Z,23.12
2018-02-04T07:12:25.716Z,19.33
2018-02-04T07:14:53.227Z,20.90
2018-02-04T07:17:20.752Z,22.02
2018-02-04T07:19:48.278Z,21.30
2018-02-04T07:22:15.810Z,19.52
2018-02-04T07:24:43.323Z,19.75
2018-02-04T07:27:10.859Z,23.17
2018-02-04T07:29:38.363Z,20.08
2018-02-04T07:32:06.646Z,22.10
2018-02-04T07:34:34.169Z,18.85
2018-02-04T07:37:01.684Z,28.25
2018-02-04T07:39:29.249Z,22.70
2018-02-04T07:41:56.779Z,21.00
2018-02-04T07:44:24.306Z,23.02
2018-02-04T07:46:51.823Z,23.15
2018-02-04T07:49:19.359Z,22.08
2018-02-04T07:51:46.879Z,22.00
2018-02-04T07:54:14.390Z,24.05
2018-02-04T07:56:41.910Z,24.05
2018-02-04T07:59:10.178Z,24.45
2018-02-04T08:01:37.719Z,23.85
2018-02-04T08:04:05.249Z,26.23
2018-02-04T08:06:32.753Z,27.48
2018-02-04T08:09:01.088Z,32.80
2018-02-04T08:11:28.603Z,40.83
2018-02-04T08:13:56.886Z,27.27
2018-02-04T08:16:25.186Z,19.65
2018-02-04T08:18:52.713Z,23.05
2018-02-04T08:21:21.005Z,23.00
2018-02-04T08:23:48.543Z,21.02
2018-02-04T08:26:16.832Z,22.13
2018-02-04T08:28:45.136Z,23.98
2018-02-04T08:31:12.652Z,21.73
2018-02-04T08:33:40.944Z,25.58
2018-02-04T08:36:09.246Z,25.80
2018-02-04T08:38:36.746Z,22.52
2018-02-04T08:41:04.250Z,22.70
2018-02-04T08:43:31.795Z,21.35
2018-02-04T08:46:00.061Z,20.85
2018-02-04T08:48:28.355Z,18.35
2018-02-04T08:50:55.890Z,20.75
2018-02-04T08:53:23.386Z,20.67
2018-02-04T08:55:50.899Z,22.98
2018-02-04T08:58:18.423Z,18.83
2018-02-04T09:00:45.943Z,22.40
2018-02-04T09:03:14.219Z,22.35
2018-02-04T09:05:42.541Z,16.25
2018-02-04T09:08:10.067Z,17.05
2018-02-04T09:10:37.593Z,17.30
2018-02-04T09:13:05.115Z,17.98
2018-02-04T09:15:32.627Z,23.42
2018-02-04T09:18:00.893Z,19.95
2018-02-04T09:20:29.182Z,22.42
2018-02-04T09:22:56.694Z,21.85
2018-02-04T09:25:24.198Z,20.00
2018-02-04T09:27:52.496Z,17.40
2018-02-04T09:30:20.005Z,18.98
2018-02-04T09:32:47.522Z,21.10
2018-02-04T09:35:15.060Z,20.52
2018-02-04T09:37:42.577Z,19.20
2018-02-04T09:40:10.102Z,21.05
2018-02-04T09:42:37.609Z,18.95
2018-02-04T09:45:05.895Z,25.65
2018-02-04T09:47:34.208Z,21.20
2018-02-04T09:50:01.729Z,19.02
2018-02-04T09:52:30.041Z,32.05
2018-02-04T09:54:57.537Z,58.85
2018-02-04T09:57:25.033Z,23.20
2018-02-04T09:59:52.565Z,24.20
2018-02-04T10:02:20.177Z,22.83
2018-02-04T10:04:47.682Z,21.62
2018-02-04T10:07:15.203Z,22.37
2018-02-04T10:09:42.715Z,20.50
2018-02-04T10:12:10.999Z,19.58
2018-02-04T10:14:39.285Z,19.05
2018-02-04T10:17:06.812Z,21.12
2018-02-04T10:19:34.314Z,21.25
2018-02-04T10:22:01.853Z,19.35
2018-02-04T10:24:29.380Z,21.48
2018-02-04T10:26:56.902Z,19.25
2018-02-04T10:29:24.404Z,24.15
2018-02-04T10:31:51.910Z,28.05
2018-02-04T10:34:19.434Z,23.70
2018-02-04T10:36:47.725Z,18.90
2018-02-04T10:39:15.229Z,19.23
2018-02-04T10:41:42.754Z,35.55
2018-02-04T10:44:10.272Z,22.52
2018-02-04T10:46:37.788Z,19.42
2018-02-04T10:49:05.306Z,17.23
2018-02-04T10:51:39.192Z,18.35
2018-02-04T10:54:06.709Z,14.35
2018-02-04T10:56:34.202Z,12.68
2018-02-04T10:59:01.695Z,14.32
2018-02-04T11:01:29.217Z,15.40
2018-02-04T11:03:56.723Z,15.77
2018-02-04T11:06:24.254Z,16.75
2018-02-04T11:08:52.526Z,18.33
2018-02-04T11:11:20.057Z,18.27
2018-02-04T11:13:47.577Z,16.98
2018-02-04T11:16:15.082Z,15.15
2018-02-04T11:18:42.621Z,15.90
2018-02-04T11:21:10.125Z,17.45
2018-02-04T11:23:38.430Z,22.42
2018-02-04T11:26:05.987Z,18.70
2018-02-04T11:28:33.510Z,23.75
2018-02-04T11:34:00.613Z,26.95
2018-02-04T11:36:28.140Z,15.90
2018-02-04T11:38:55.630Z,12.10
2018-02-04T11:41:23.160Z,16.80
2018-02-04T11:43:50.675Z,15.50
2018-02-04T11:46:18.198Z,16.30
2018-02-04T11:48:46.466Z,15.73
2018-02-04T11:51:14.736Z,15.65
2018-02-04T11:53:43.048Z,17.55
2018-02-04T11:56:10.541Z,14.75
2018-02-04T11:58:38.038Z,12.65
2018-02-04T12:01:07.193Z,16.12
2018-02-04T12:03:34.713Z,18.55
2018-02-04T12:06:02.241Z,15.75
2018-02-04T12:08:30.549Z,14.00
2018-02-04T12:10:58.295Z,14.90
2018-02-04T12:13:25.898Z,13.15
2018-02-04T12:15:53.413Z,12.65
2018-02-04T12:18:21.671Z,14.48
2018-02-04T12:20:49.204Z,15.95
2018-02-04T12:23:16.697Z,17.70
2018-02-04T12:25:44.964Z,15.98
2018-02-04T12:28:12.502Z,17.92
2018-02-04T12:30:39.997Z,17.00
2018-02-04T12:33:08.276Z,15.43
2018-02-04T12:35:36.573Z,17.87
2018-02-04T12:38:04.104Z,22.05
2018-02-04T12:40:31.581Z,18.48
2018-02-04T12:42:59.104Z,15.90
2018-02-04T12:45:26.607Z,14.65
2018-02-04T12:47:54.129Z,14.43
2018-02-04T12:50:22.409Z,18.37
2018-02-04T12:52:50.698Z,17.62
2018-02-04T12:55:18.954Z,18.55
2018-02-04T12:57:48.313Z,18.92
2018-02-04T13:00:15.862Z,20.40
2018-02-04T13:02:43.585Z,19.77
2018-02-04T13:05:11.129Z,19.55
2018-02-04T13:07:38.647Z,18.10
2018-02-04T13:10:06.153Z,15.10
2018-02-04T13:12:33.685Z,17.05
2018-02-04T13:15:01.237Z,15.40
2018-02-04T13:17:28.739Z,12.40
2018-02-04T13:19:57.022Z,24.75
2018-02-04T13:22:25.290Z,14.60
2018-02-04T13:24:53.580Z,14.80
2018-02-04T13:27:21.089Z,15.75
2018-02-04T13:29:48.610Z,13.50
2018-02-04T13:32:16.308Z,16.40
2018-02-04T13:34:44.707Z,17.12
2018-02-04T13:37:13.303Z,15.75
2018-02-04T13:39:40.963Z,19.62
2018-02-04T13:42:09.457Z,28.55
2018-02-04T13:44:37.000Z,24.17
2018-02-04T13:47:04.520Z,24.02
2018-02-04T13:49:32.039Z,26.33
2018-02-04T13:51:59.556Z,19.92
2018-02-04T13:54:27.087Z,19.12
2018-02-04T13:56:54.591Z,17.95
2018-02-04T13:59:22.091Z,21.35
2018-02-04T14:01:49.606Z,32.05
2018-02-04T14:04:17.110Z,32.53
2018-02-04T14:06:44.646Z,22.23
2018-02-04T14:09:12.933Z,19.02
2018-02-04T14:11:40.489Z,18.98
2018-02-04T14:14:07.994Z,18.50
2018-02-04T14:16:35.510Z,20.33
2018-02-04T14:19:03.052Z,18.35
2018-02-04T14:21:30.581Z,21.70
2018-02-04T14:23:58.116Z,20.10
2018-02-04T14:26:25.616Z,18.30
2018-02-04T14:28:53.899Z,19.52
2018-02-04T14:31:22.206Z,19.30
2018-02-04T14:33:49.726Z,21.65
2018-02-04T14:36:18.031Z,20.35
2018-02-04T14:38:45.540Z,16.08
2018-02-04T14:41:13.043Z,20.10
2018-02-04T14:43:40.558Z,16.80
2018-02-04T14:46:08.105Z,21.20
2018-02-04T14:48:35.634Z,17.83
2018-02-04T14:51:03.139Z,15.70
2018-02-04T14:53:30.641Z,20.83
2018-02-04T14:55:58.168Z,16.58
2018-02-04T14:58:25.689Z,18.70
2018-02-04T15:00:53.994Z,15.50
2018-02-04T15:03:21.508Z,17.15
2018-02-04T15:05:49.055Z,20.08
2018-02-04T15:08:16.573Z,18.40
2018-02-04T15:10:44.072Z,18.80
2018-02-04T15:13:11.603Z,15.27
2018-02-04T15:15:39.866Z,19.62
2018-02-04T15:18:07.395Z,19.73
2018-02-04T15:27:56.861Z,19.70
2018-02-04T15:30:25.222Z,23.20
2018-02-04T15:32:53.477Z,21.92
2018-02-04T15:35:20.983Z,21.73
2018-02-04T15:37:48.513Z,30.67
2018-02-04T15:40:16.006Z,37.45
2018-02-04T15:42:43.557Z,34.85
2018-02-04T15:45:11.060Z,19.85
2018-02-04T15:47:38.575Z,22.33
2018-02-04T15:50:06.164Z,19.37
2018-02-04T15:52:33.640Z,16.25
2018-02-04T15:55:01.180Z,20.52
2018-02-04T15:57:28.679Z,21.75
2018-02-04T15:59:56.178Z,21.67
2018-02-04T16:02:23.749Z,31.25
2018-02-04T16:04:51.983Z,33.55
2018-02-04T16:07:20.302Z,26.08
2018-02-04T16:09:47.811Z,33.47
2018-02-04T16:12:15.316Z,29.40
2018-02-04T16:14:42.863Z,23.85
2018-02-04T16:17:10.385Z,21.02
2018-02-04T16:19:37.916Z,22.92
2018-02-04T16:22:05.437Z,26.08
2018-02-04T16:24:32.955Z,21.65
2018-02-04T16:27:00.471Z,23.12
2018-02-04T16:29:27.981Z,24.40
2018-02-04T16:31:55.502Z,27.30
2018-02-04T16:34:23.763Z,22.13
2018-02-04T16:36:51.276Z,29.67
2018-02-04T16:39:19.565Z,22.05
2018-02-04T16:41:47.822Z,21.95
2018-02-04T16:44:15.341Z,20.88
2018-02-04T16:46:42.833Z,25.08
2018-02-04T16:49:10.331Z,27.75
2018-02-04T16:51:37.854Z,26.17
2018-02-04T16:54:05.367Z,28.05
2018-02-04T16:56:32.907Z,23.55
2018-02-04T16:59:00.425Z,28.48
2018-02-04T17:01:27.921Z,28.62
2018-02-04T17:03:55.453Z,27.77
2018-02-04T17:06:22.956Z,29.83
2018-02-04T17:08:50.483Z,25.67
2018-02-04T17:11:18.858Z,27.83
2018-02-04T17:13:47.182Z,25.00
2018-02-04T17:16:14.697Z,26.42
2018-02-04T17:18:42.965Z,30.17
2018-02-04T17:21:11.267Z,28.62
2018-02-04T17:23:38.762Z,24.27
2018-02-04T17:26:06.304Z,20.37
2018-02-04T17:28:33.802Z,24.02
2018-02-04T17:31:01.336Z,30.80
2018-02-04T17:33:28.852Z,33.60
2018-02-04T17:35:56.369Z,34.42
2018-02-04T17:38:23.913Z,30.30
2018-02-04T17:40:51.433Z,22.67
2018-02-04T17:43:18.961Z,29.10
2018-02-04T17:45:46.481Z,29.15
2018-02-04T17:48:13.986Z,27.42
2018-02-04T17:50:42.286Z,31.15
2018-02-04T17:53:09.806Z,31.52
2018-02-04T17:55:37.333Z,25.20
2018-02-04T17:58:04.889Z,33.75
2018-02-04T18:00:32.409Z,33.53
2018-02-04T18:03:00.710Z,29.60
2018-02-04T18:05:28.214Z,28.83
2018-02-04T18:07:55.737Z,25.80
2018-02-04T18:10:23.282Z,24.02
2018-02-04T18:12:50.831Z,24.92
2018-02-04T18:15:18.367Z,27.48
2018-02-04T18:17:46.634Z,31.50
2018-02-04T18:20:14.158Z,26.58
2018-02-04T18:22:41.694Z,30.17
2018-02-04T18:25:09.215Z,30.95
2018-02-04T18:27:37.511Z,30.88
2018-02-04T18:30:05.040Z,31.02
2018-02-04T18:32:32.609Z,30.65
2018-02-04T18:35:00.896Z,32.53
2018-02-04T18:37:28.415Z,34.75
2018-02-04T18:39:55.948Z,39.83
2018-02-04T18:42:23.449Z,34.17
2018-02-04T18:44:50.988Z,35.17
2018-02-04T18:47:18.483Z,41.10
2018-02-04T18:49:46.752Z,35.42
2018-02-04T18:52:15.076Z,37.42
2018-02-04T18:54:42.574Z,39.00
2018-02-04T18:57:10.106Z,33.10
2018-02-04T18:59:37.610Z,39.63
2018-02-04T19:02:05.105Z,41.47
2018-02-04T19:04:32.647Z,40.07
2018-02-04T19:07:00.151Z,38.88
2018-02-04T19:09:27.677Z,33.95
2018-02-04T19:11:55.198Z,39.13
2018-02-04T19:14:22.716Z,38.78
2018-02-04T19:16:50.230Z,37.85
2018-02-04T19:19:18.520Z,51.80
2018-02-04T19:21:46.055Z,57.67
2018-02-04T19:24:13.571Z,61.75
2018-02-04T19:26:41.089Z,60.17
2018-02-04T19:29:09.409Z,69.12
2018-02-04T19:31:36.928Z,58.60
2018-02-04T19:34:04.478Z,53.50
2018-02-04T19:36:32.746Z,53.53
2018-02-04T19:39:00.245Z,63.05
2018-02-04T19:41:27.780Z,57.85
2018-02-04T19:43:56.050Z,64.12
2018-02-04T19:46:24.350Z,63.30
2018-02-04T19:48:51.865Z,47.55
2018-02-04T19:51:19.420Z,45.88
2018-02-04T19:53:46.951Z,44.88
2018-02-04T19:56:14.527Z,43.38
2018-02-04T19:58:42.024Z,42.30
2018-02-04T20:01:10.317Z,39.83
2018-02-04T20:03:37.884Z,37.53
2018-02-04T20:06:05.394Z,43.40
2018-02-04T20:08:32.886Z,52.50
2018-02-04T20:11:00.420Z,51.97
2018-02-04T20:13:28.699Z,45.85
2018-02-04T20:15:56.240Z,46.85
2018-02-04T20:18:23.770Z,49.20
2018-02-04T20:20:51.293Z,43.28
2018-02-04T20:23:19.600Z,45.42
2018-02-04T20:25:47.105Z,47.67
2018-02-04T20:28:14.693Z,41.47
2018-02-04T20:30:42.216Z,38.05
2018-02-04T20:33:23.629Z,35.65
2018-02-04T20:35:51.899Z,34.22
2018-02-04T20:38:20.178Z,36.40
2018-02-04T20:40:48.488Z,39.80
2018-02-04T20:43:16.005Z,36.00
2018-02-04T20:45:43.500Z,39.30
2018-02-04T20:48:11.046Z,52.15
2018-02-04T20:50:38.550Z,45.47
2018-02-04T20:53:06.070Z,61.05
2018-02-04T20:55:33.581Z,52.62
2018-02-04T20:58:01.137Z,53.90
2018-02-04T21:00:28.669Z,59.58
2018-02-04T21:02:56.191Z,51.22
2018-02-04T21:05:24.474Z,56.37
2018-02-04T21:07:51.978Z,69.30
2018-02-04T21:10:19.526Z,62.22
2018-02-04T21:12:47.039Z,63.85
2018-02-04T21:15:15.302Z,55.03
2018-02-04T21:17:42.826Z,55.28
2018-02-04T21:20:10.358Z,47.45
2018-02-04T21:22:37.915Z,61.95
2018-02-04T21:25:05.419Z,58.22
2018-02-04T21:27:32.919Z,62.30
2018-02-04T21:30:00.472Z,59.83
2018-02-04T21:32:27.989Z,47.78
2018-02-04T21:34:55.523Z,48.55
2018-02-04T21:37:23.017Z,51.65
2018-02-04T21:39:50.535Z,46.05
2018-02-04T21:42:18.054Z,50.03
2018-02-04T21:44:46.332Z,49.20
2018-02-04T21:47:14.635Z,41.95
2018-02-04T21:49:42.142Z,50.47
2018-02-04T21:52:09.651Z,43.95
2018-02-04T21:54:37.174Z,39.55
2018-02-04T21:57:04.669Z,45.47
2018-02-04T21:59:32.207Z,51.17
2018-02-04T22:01:59.711Z,41.78
2018-02-04T22:04:27.240Z,39.67
2018-02-04T22:06:55.547Z,46.47
2018-02-04T22:09:23.055Z,39.30
2018-02-04T22:11:50.585Z,42.28
2018-02-04T22:14:18.082Z,42.42
2018-02-04T22:16:46.374Z,42.00
2018-02-04T22:19:14.642Z,61.85
2018-02-04T22:21:42.926Z,64.07
2018-02-04T22:24:10.471Z,54.00
2018-02-04T22:26:38.733Z,60.05
2018-02-04T22:29:06.258Z,58.08
2018-02-04T22:31:33.762Z,52.35
2018-02-04T22:34:02.032Z,50.53
2018-02-04T22:36:30.330Z,52.80
2018-02-04T22:38:57.847Z,49.78
2018-02-04T22:41:25.378Z,45.70
2018-02-04T22:43:52.895Z,43.22
2018-02-04T22:46:21.181Z,51.70
2018-02-04T22:48:49.483Z,50.92
2018-02-04T22:51:17.009Z,41.60
2018-02-04T22:53:45.306Z,42.67
2018-02-04T22:56:12.814Z,39.92
2018-02-04T22:58:40.329Z,46.63
2018-02-04T23:01:07.857Z,49.25
2018-02-04T23:03:36.149Z,47.90
2018-02-04T23:06:03.683Z,45.58
2018-02-04T23:08:31.206Z,46.85
2018-02-04T23:10:58.757Z,38.65
2018-02-04T23:13:26.276Z,48.25
2018-02-04T23:15:54.566Z,39.63
2018-02-04T23:18:22.082Z,40.08
2018-02-04T23:20:49.600Z,44.85
2018-02-04T23:23:17.123Z,43.38
2018-02-04T23:25:44.655Z,36.88
2018-02-04T23:28:12.158Z,39.42
2018-02-04T23:30:39.674Z,40.28
2018-02-04T23:33:07.174Z,38.20
2018-02-04T23:35:34.712Z,43.85
2018-02-04T23:38:02.996Z,47.53
2018-02-04T23:40:31.270Z,43.92
2018-02-04T23:42:59.574Z,44.60
2018-02-04T23:45:27.097Z,46.42
2018-02-04T23:47:55.404Z,41.88
2018-02-04T23:50:22.907Z,47.17
2018-02-04T23:52:50.406Z,46.05
2018-02-04T23:55:17.939Z,39.40
2018-02-04T23:57:45.438Z,41.95
